Time;durP1;ratioP1;P1;durP2;ratioP2;P2;SDS_P1;SDS_P2;PMS_P1;PMS_P2;Temp;Humidity;BMP_temperature;BMP_pressure;BME280_temperature;BME280_humidity;BME280_pressure;Samples;Min_cycle;Max_cycle;Signal;HPM_P1;HPM_P2
2023/07/23 00:01:27;;;;;;;8.30;5.30;;;;;;;14.38;94.63;100043.34;180629;1256;45987;-64
2023/07/23 00:05:34;;;;;;;7.60;5.80;;;;;;;14.44;94.33;100032.37;180628;1257;57961;-64
2023/07/23 00:09:37;;;;;;;11.30;6.20;;;;;;;14.42;94.79;100030.62;180588;1255;43535;-63
2023/07/23 00:13:40;;;;;;;7.10;5.40;;;;;;;14.35;95.59;100028.88;180620;1256;45716;-64
2023/07/23 00:18:14;;;;;;;6.20;5.40;;;;;;;14.33;96.44;100024.19;180408;1257;46017;-64
2023/07/23 00:22:17;;;;;;;8.60;5.40;;;;;;;14.37;96.31;100018.27;180620;1257;44584;-64
2023/07/23 00:26:22;;;;;;;10.30;5.50;;;;;;;14.30;97.35;100017.52;180396;1257;58202;-63
2023/07/23 00:30:25;;;;;;;9.10;6.30;;;;;;;14.27;98.13;100014.63;180418;1255;43584;-63
2023/07/23 00:34:32;;;;;;;9.10;5.70;;;;;;;14.27;98.54;100011.26;180615;1257;46060;-65
2023/07/23 00:38:35;;;;;;;11.50;5.10;;;;;;;14.22;99.33;100008.41;180386;1257;46045;-63
2023/07/23 00:42:43;;;;;;;8.70;6.80;;;;;;;14.26;99.54;100008.20;180633;1256;43535;-63
2023/07/23 00:46:46;;;;;;;11.20;7.40;;;;;;;14.37;98.81;100002.63;180591;1257;57750;-65
2023/07/23 00:50:52;;;;;;;7.40;5.80;;;;;;;14.39;98.80;99997.89;180367;1256;43734;-64
2023/07/23 00:54:55;;;;;;;9.90;7.80;;;;;;;14.48;98.16;99991.64;180621;1257;43868;-66
2023/07/23 00:58:58;;;;;;;7.90;7.00;;;;;;;14.56;97.27;99988.69;180598;1257;44060;-66
2023/07/23 01:09:15;;;;;;;8.70;7.30;;;;;;;14.60;97.05;99972.41;174953;1289;567514;-86
2023/07/23 01:13:19;;;;;;;6.00;5.50;;;;;;;14.61;97.42;99968.02;178678;1264;59993;-89
2023/07/23 01:17:23;;;;;;;8.80;6.40;;;;;;;14.65;97.21;99961.36;178773;1267;45964;-90
2023/07/23 01:21:27;;;;;;;11.10;6.40;;;;;;;14.76;97.74;99955.98;180201;1251;154885;-89
2023/07/23 01:25:31;;;;;;;7.30;5.60;;;;;;;14.91;96.50;99955.80;180495;1253;45957;-88
2023/07/23 01:29:35;;;;;;;9.10;5.90;;;;;;;15.06;96.08;99950.11;180720;1251;45892;-88
2023/07/23 01:33:42;;;;;;;6.80;6.00;;;;;;;15.18;95.93;99945.02;180522;1253;59390;-90
2023/07/23 01:37:49;;;;;;;6.90;5.70;;;;;;;15.28;95.35;99939.78;180410;1251;44760;-90
2023/07/23 01:41:55;;;;;;;9.80;6.50;;;;;;;15.42;94.60;99935.31;180605;1251;46066;-90
2023/07/23 01:45:58;;;;;;;;;;;;;;;15.52;94.57;99934.05;180626;1251;45840;-88
2023/07/23 01:50:01;;;;;;;6.60;5.10;;;;;;;15.62;94.40;99932.24;180749;1249;44408;-90
2023/07/23 01:54:05;;;;;;;8.10;6.10;;;;;;;15.74;94.35;99926.30;180515;1249;58241;-89
2023/07/23 01:58:08;;;;;;;9.90;5.20;;;;;;;15.90;92.40;99923.53;180756;1251;46056;-90
2023/07/23 02:02:11;;;;;;;13.10;7.20;;;;;;;16.00;89.68;99921.67;180512;1251;44945;-89
2023/07/23 02:06:17;;;;;;;5.40;4.20;;;;;;;16.16;88.61;99916.34;180587;1251;46005;-89
2023/07/23 02:10:21;;;;;;;7.20;4.40;;;;;;;16.29;88.55;99915.61;180790;1253;44528;-88
2023/07/23 02:14:24;;;;;;;5.00;4.10;;;;;;;16.44;87.75;99912.57;180710;1252;59548;-90
2023/07/23 02:18:30;;;;;;;5.30;4.80;;;;;;;16.59;87.21;99908.96;180888;1251;46041;-88
2023/07/23 02:22:34;;;;;;;13.60;4.00;;;;;;;16.65;86.47;99906.00;180646;1251;44464;-90
2023/07/23 02:26:37;;;;;;;4.70;4.00;;;;;;;16.53;87.41;99902.64;180492;1250;44603;-91
2023/07/23 02:30:40;;;;;;;8.00;6.20;;;;;;;16.47;87.20;99900.95;180797;1251;44128;-90
2023/07/23 02:34:57;;;;;;;5.90;4.60;;;;;;;16.39;87.38;99899.00;180664;1251;59570;-89
2023/07/23 02:39:02;;;;;;;5.80;4.90;;;;;;;16.39;86.62;99900.23;180687;1251;45237;-87
2023/07/23 02:43:09;;;;;;;5.60;4.00;;;;;;;16.37;86.71;99901.36;180776;1251;46162;-88
2023/07/23 02:47:19;;;;;;;7.50;4.80;;;;;;;16.34;87.11;99900.19;180772;1254;44812;-88
2023/07/23 02:51:31;;;;;;;10.50;4.60;;;;;;;16.33;86.70;99896.73;180510;1256;46019;-89
2023/07/23 02:55:36;;;;;;;7.20;5.50;;;;;;;16.28;86.86;99894.14;180486;1256;60129;-88
2023/07/23 02:59:50;;;;;;;6.70;3.90;;;;;;;16.16;87.38;99897.53;180369;1254;46092;-87
2023/07/23 03:03:55;;;;;;;9.80;5.80;;;;;;;16.09;87.69;99899.90;180425;1254;45484;-88
2023/07/23 03:08:06;;;;;;;8.40;5.80;;;;;;;16.18;86.93;99892.56;180453;1252;44950;-90
2023/07/23 03:12:11;;;;;;;6.80;5.10;;;;;;;16.25;86.49;99891.44;180333;1254;44760;-88
2023/07/23 03:16:16;;;;;;;7.50;5.20;;;;;;;16.31;85.89;99892.72;180646;1256;58267;-90
2023/07/23 03:20:24;;;;;;;5.30;4.50;;;;;;;16.33;85.41;99891.35;180468;1252;44760;-90
2023/07/23 03:24:31;;;;;;;6.90;4.30;;;;;;;16.38;84.90;99886.52;180191;1253;46015;-90
2023/07/23 03:28:36;;;;;;;6.20;4.20;;;;;;;16.43;84.58;99883.99;180199;1253;44605;-89
2023/07/23 03:32:40;;;;;;;4.40;3.90;;;;;;;16.49;83.99;99875.80;180444;1252;44123;-89
2023/07/23 03:36:47;;;;;;;4.80;3.60;;;;;;;16.56;83.71;99875.40;180059;1255;60662;-90
2023/07/23 03:40:51;;;;;;;7.00;5.10;;;;;;;16.62;83.61;99869.90;180480;1254;45868;-89
2023/07/23 03:45:15;;;;;;;4.10;3.70;;;;;;;16.69;83.25;99864.99;180136;1255;44890;-87
2023/07/23 03:49:20;;;;;;;5.60;3.60;;;;;;;16.77;82.06;99858.39;180526;1251;45954;-90
2023/07/23 03:53:32;;;;;;;4.80;3.80;;;;;;;16.88;81.73;99857.60;180353;1253;44542;-88
2023/07/23 03:57:38;;;;;;;3.30;2.90;;;;;;;17.03;80.66;99851.68;180445;1255;60456;-86
2023/07/23 04:02:10;;;;;;;6.30;4.60;;;;;;;17.14;80.65;99858.04;180673;1256;44311;-87
2023/07/23 04:06:18;;;;;;;5.90;3.40;;;;;;;17.30;80.13;99854.45;181134;1252;49976;-89
2023/07/23 04:10:25;;;;;;;3.50;3.20;;;;;;;17.46;79.09;99850.04;180583;1254;46045;-89
2023/07/23 04:14:31;;;;;;;10.60;3.90;;;;;;;17.68;77.82;99846.59;181060;1254;47640;-89
2023/07/23 04:19:06;;;;;;;4.10;3.40;;;;;;;17.88;76.43;99849.98;180847;1251;58789;-89
2023/07/23 04:23:25;;;;;;;4.20;3.60;;;;;;;18.11;76.06;99841.31;180615;1252;48324;-91
2023/07/23 04:27:43;;;;;;;5.50;3.70;;;;;;;18.29;74.30;99836.77;181077;1254;47333;-89
2023/07/23 04:31:53;;;;;;;4.70;3.60;;;;;;;18.42;73.17;99840.59;180976;1253;46002;-90
2023/07/23 04:36:13;;;;;;;3.70;2.90;;;;;;;18.58;72.63;99843.67;175816;1259;43905;-63
2023/07/23 04:40:21;;;;;;;5.30;2.50;;;;;;;18.71;72.03;99845.80;179994;1259;58218;-67
2023/07/23 04:44:28;;;;;;;5.20;3.70;;;;;;;18.87;71.25;99848.06;180080;1260;45039;-66
2023/07/23 04:48:41;;;;;;;3.20;2.90;;;;;;;19.07;70.45;99844.05;179828;1259;46017;-67
2023/07/23 04:52:44;;;;;;;5.40;3.40;;;;;;;19.31;70.42;99838.09;179900;1263;46519;-67
2023/07/23 04:56:48;;;;;;;3.80;2.80;;;;;;;19.54;69.25;99839.55;179939;1259;43650;-66
2023/07/23 05:00:54;;;;;;;5.00;2.50;;;;;;;19.79;68.58;99836.13;179987;1259;58601;-66
2023/07/23 05:04:57;;;;;;;5.10;3.00;;;;;;;19.93;67.64;99829.06;180003;1259;45974;-68
2023/07/23 05:08:59;;;;;;;4.50;4.10;;;;;;;20.06;66.82;99823.80;179785;1260;45907;-67
2023/07/23 05:13:03;;;;;;;5.40;3.20;;;;;;;20.16;66.52;99825.98;179885;1259;45812;-66
2023/07/23 05:17:06;;;;;;;5.10;2.80;;;;;;;20.25;66.63;99825.27;179967;1259;43575;-66
2023/07/23 05:21:12;;;;;;;3.40;2.80;;;;;;;20.59;65.65;99823.48;180238;1258;88146;-87
2023/07/23 05:25:15;;;;;;;4.10;2.80;;;;;;;21.26;64.93;99825.42;180702;1259;45577;-82
2023/07/23 05:29:18;;;;;;;3.70;2.90;;;;;;;22.03;63.22;99821.09;180933;1259;44546;-87
2023/07/23 05:33:23;;;;;;;7.70;3.80;;;;;;;22.85;60.45;99820.36;180740;1259;44740;-89
2023/07/23 05:37:27;;;;;;;4.40;2.90;;;;;;;23.31;59.25;99824.73;181034;1258;45938;-83
2023/07/23 05:41:33;;;;;;;27.10;5.60;;;;;;;23.38;58.55;99823.36;180873;1262;58478;-87
2023/07/23 05:45:36;;;;;;;3.50;2.40;;;;;;;23.30;58.03;99822.50;180931;1261;45135;-85
2023/07/23 05:49:40;;;;;;;4.90;2.80;;;;;;;23.21;58.86;99823.87;180889;1259;44712;-86
2023/07/23 05:53:45;;;;;;;2.60;2.30;;;;;;;23.22;59.11;99826.79;180947;1259;44657;-84
2023/07/23 05:57:48;;;;;;;;;;;;;;;23.24;59.67;99831.00;180904;1259;44633;-88
2023/07/23 06:06:40;;;;;;;6.60;3.50;;;;;;;23.04;59.43;99836.21;179222;1267;44648;-85
2023/07/23 06:10:44;;;;;;;2.60;2.30;;;;;;;22.99;59.83;99832.64;180173;1269;44179;-84
2023/07/23 06:14:47;;;;;;;4.70;2.70;;;;;;;22.96;60.99;99830.68;178996;1266;46152;-82
2023/07/23 06:18:50;;;;;;;2.50;2.10;;;;;;;22.98;60.78;99828.80;178638;1266;44154;-82
2023/07/23 06:22:54;;;;;;;7.60;2.60;;;;;;;23.03;61.37;99826.90;179021;1266;59253;-82
2023/07/23 06:26:58;;;;;;;6.20;3.10;;;;;;;23.05;61.14;99826.11;178458;1267;44071;-82
2023/07/23 06:31:01;;;;;;;3.70;2.60;;;;;;;23.07;61.24;99825.64;178686;1267;44710;-82
2023/07/23 06:35:10;;;;;;;4.00;2.60;;;;;;;23.17;60.96;99822.86;178670;1265;44036;-82
2023/07/23 06:39:13;;;;;;;3.00;2.30;;;;;;;23.34;61.33;99823.92;179198;1267;46005;-82
2023/07/23 06:43:17;;;;;;;3.60;2.30;;;;;;;23.53;60.86;99820.88;178863;1265;57991;-82
2023/07/23 06:47:21;;;;;;;3.40;1.90;;;;;;;23.91;60.91;99815.17;178590;1267;46041;-82
2023/07/23 06:51:25;;;;;;;2.90;2.10;;;;;;;24.63;59.47;99809.57;178642;1267;46142;-82
2023/07/23 06:55:29;;;;;;;2.90;2.10;;;;;;;25.10;57.07;99804.47;179116;1266;46018;-82
2023/07/23 06:59:32;;;;;;;5.20;2.10;;;;;;;25.35;56.95;99797.86;179017;1265;45930;-82
2023/07/23 07:03:36;;;;;;;3.10;1.60;;;;;;;25.43;55.03;99802.95;179256;1267;58559;-82
2023/07/23 07:07:40;;;;;;;2.10;1.80;;;;;;;25.61;55.47;99805.89;178962;1265;44891;-82
2023/07/23 07:11:44;;;;;;;4.20;2.60;;;;;;;25.78;54.44;99803.54;179080;1268;46079;-82
2023/07/23 07:15:48;;;;;;;2.50;2.10;;;;;;;25.95;54.18;99803.80;179267;1264;46046;-82
2023/07/23 07:19:51;;;;;;;2.60;1.60;;;;;;;26.05;54.09;99806.40;179417;1265;46142;-83
2023/07/23 07:23:56;;;;;;;3.50;2.30;;;;;;;26.21;54.22;99805.06;179197;1265;58559;-82
2023/07/23 07:28:00;;;;;;;3.20;2.00;;;;;;;26.30;53.87;99800.83;179102;1267;46235;-82
2023/07/23 07:32:04;;;;;;;5.90;2.80;;;;;;;26.43;53.62;99793.98;179097;1265;45984;-83
2023/07/23 07:36:08;;;;;;;2.50;1.50;;;;;;;26.51;52.70;99791.75;179240;1265;43892;-83
2023/07/23 07:40:14;;;;;;;4.90;3.00;;;;;;;26.66;53.63;99790.45;179491;1265;46137;-82
2023/07/23 07:44:18;;;;;;;5.10;2.70;;;;;;;26.94;52.32;99791.98;179111;1266;61131;-83
2023/07/23 07:48:22;;;;;;;2.40;2.00;;;;;;;27.22;51.04;99793.47;179362;1265;44607;-83
2023/07/23 07:52:26;;;;;;;4.30;2.20;;;;;;;27.93;50.87;99787.79;179326;1266;45780;-82
2023/07/23 07:56:31;;;;;;;4.30;1.70;;;;;;;28.48;49.30;99784.02;179749;1265;46005;-82
2023/07/23 08:00:35;;;;;;;4.60;1.50;;;;;;;28.66;48.03;99782.77;179542;1265;45950;-83
2023/07/23 08:04:40;;;;;;;3.10;1.90;;;;;;;28.63;47.54;99780.05;179330;1266;58524;-83
2023/07/23 08:08:48;;;;;;;6.70;2.20;;;;;;;28.32;47.14;99787.57;179158;1267;44550;-84
2023/07/23 08:12:53;;;;;;;1.80;1.50;;;;;;;28.05;46.85;99786.58;179408;1265;44440;-83
2023/07/23 08:16:57;;;;;;;4.80;2.70;;;;;;;28.10;48.22;99788.11;179570;1264;45913;-83
2023/07/23 08:21:02;;;;;;;4.10;1.90;;;;;;;28.26;47.61;99782.80;179531;1265;46009;-83
2023/07/23 08:25:08;;;;;;;3.10;2.30;;;;;;;28.38;47.42;99777.68;179189;1266;58436;-83
2023/07/23 08:29:16;;;;;;;4.00;2.40;;;;;;;28.38;47.19;99774.90;179471;1265;43890;-83
2023/07/23 08:33:23;;;;;;;3.60;2.30;;;;;;;28.54;48.22;99770.85;179575;1265;45981;-83
2023/07/23 08:37:27;;;;;;;3.10;2.20;;;;;;;28.69;47.23;99770.27;179453;1264;44020;-83
2023/07/23 08:41:37;;;;;;;21.40;6.10;;;;;;;28.94;46.26;99764.77;179310;1265;44780;-83
2023/07/23 08:46:13;;;;;;;3.50;2.10;;;;;;;29.27;46.18;99762.45;179358;1265;58567;-83
2023/07/23 08:50:18;;;;;;;3.70;2.00;;;;;;;29.85;46.76;99758.02;179607;1266;44132;-83
2023/07/23 08:54:23;;;;;;;2.60;2.20;;;;;;;30.32;46.04;99751.63;179489;1265;46073;-83
2023/07/23 08:58:29;;;;;;;5.10;2.00;;;;;;;30.57;43.93;99744.52;179403;1264;46062;-83
2023/07/23 09:02:40;;;;;;;3.60;1.90;;;;;;;30.42;44.57;99746.59;179296;1266;45942;-83
2023/07/23 09:06:44;;;;;;;3.80;2.00;;;;;;;30.20;43.46;99749.45;179613;1265;58601;-84
2023/07/23 09:10:49;;;;;;;5.60;1.70;;;;;;;30.03;44.50;99746.48;179626;1268;45972;-83
2023/07/23 09:14:53;;;;;;;3.60;2.00;;;;;;;29.77;44.86;99750.85;179696;1264;45949;-83
2023/07/23 09:18:58;;;;;;;14.50;4.70;;;;;;;29.85;45.88;99746.29;179527;1266;46194;-84
2023/07/23 09:23:08;;;;;;;4.20;3.40;;;;;;;29.99;45.01;99745.20;179942;1265;43750;-84
2023/07/23 09:27:15;;;;;;;4.00;3.60;;;;;;;30.00;44.66;99743.01;179506;1263;58067;-83
2023/07/23 09:31:30;;;;;;;8.90;4.20;;;;;;;29.87;43.82;99741.85;179660;1264;44635;-83
2023/07/23 09:35:37;;;;;;;6.40;3.70;;;;;;;29.76;44.64;99744.61;179690;1266;46058;-83
2023/07/23 09:39:42;;;;;;;3.60;2.70;;;;;;;29.47;44.26;99744.39;179394;1265;44152;-84
2023/07/23 09:43:46;;;;;;;21.20;3.70;;;;;;;29.29;44.14;99735.67;179332;1265;44504;-83
2023/07/23 09:47:52;;;;;;;3.40;2.00;;;;;;;29.36;45.45;99728.66;179500;1267;59305;-83
2023/07/23 09:52:16;;;;;;;;;;;;;;;29.60;44.63;99721.29;179499;1265;44311;-83
2023/07/23 09:56:22;;;;;;;4.80;2.10;;;;;;;29.95;45.33;99723.64;179360;1269;44171;-84
2023/07/23 10:00:27;;;;;;;4.80;2.00;;;;;;;30.42;46.19;99714.77;179222;1265;46021;-84
2023/07/23 10:04:32;;;;;;;3.00;2.00;;;;;;;30.76;44.75;99711.13;179608;1265;44924;-83
2023/07/23 10:08:44;;;;;;;2.40;1.40;;;;;;;30.78;45.12;99709.10;179599;1264;58717;-83
2023/07/23 10:12:49;;;;;;;3.30;2.70;;;;;;;30.77;43.86;99703.89;179718;1267;46146;-83
2023/07/23 10:16:55;;;;;;;17.70;3.00;;;;;;;30.73;43.58;99702.34;179534;1265;46025;-84
2023/07/23 10:20:59;;;;;;;25.60;3.70;;;;;;;30.65;43.40;99695.98;179649;1266;45978;-84
2023/07/23 10:25:35;;;;;;;5.60;1.70;;;;;;;30.58;43.00;99693.71;179376;1265;45931;-83
2023/07/23 10:30:20;;;;;;;4.10;1.90;;;;;;;30.67;44.43;99685.16;179783;1265;60036;-83
2023/07/23 10:34:26;;;;;;;2.80;2.30;;;;;;;30.72;43.07;99687.42;179526;1264;44124;-83
2023/07/23 10:38:35;;;;;;;3.50;2.40;;;;;;;30.68;42.35;99681.71;179878;1265;46042;-83
2023/07/23 10:42:41;;;;;;;6.00;2.10;;;;;;;30.61;44.06;99679.45;179660;1264;46067;-83
2023/07/23 10:46:50;;;;;;;4.00;1.30;;;;;;;30.43;43.57;99683.11;179487;1266;44682;-83
2023/07/23 10:51:07;;;;;;;3.00;1.70;;;;;;;30.35;44.32;99673.23;179735;1266;58277;-83
2023/07/23 10:55:47;;;;;;;4.10;2.50;;;;;;;30.34;44.18;99673.11;179642;1266;46080;-83
2023/07/23 10:59:54;;;;;;;2.00;1.30;;;;;;;30.29;43.61;99660.16;179752;1264;44597;-84
2023/07/23 11:03:58;;;;;;;2.50;1.70;;;;;;;30.18;43.55;99662.61;179543;1264;44785;-83
2023/07/23 11:08:18;;;;;;;1.50;1.30;;;;;;;29.93;43.72;99656.19;179394;1268;46132;-83
2023/07/23 11:12:24;;;;;;;4.90;1.60;;;;;;;30.14;44.20;99658.67;179626;1265;59282;-83
2023/07/23 11:16:30;;;;;;;1.70;1.00;;;;;;;30.18;43.94;99650.27;179411;1266;45939;-84
2023/07/23 11:20:34;;;;;;;5.80;2.30;;;;;;;30.18;44.27;99647.38;179548;1265;43669;-84
2023/07/23 11:24:40;;;;;;;23.50;3.10;;;;;;;30.29;43.67;99643.82;179563;1265;44001;-83
2023/07/23 11:28:44;;;;;;;10.80;4.10;;;;;;;30.59;43.20;99642.13;179413;1266;46156;-83
2023/07/23 11:32:48;;;;;;;2.30;1.20;;;;;;;30.92;42.59;99637.16;179561;1266;59450;-83
2023/07/23 11:36:55;;;;;;;4.00;1.60;;;;;;;31.13;42.22;99633.93;179394;1265;46063;-83
2023/07/23 11:41:02;;;;;;;12.60;3.20;;;;;;;31.43;42.40;99632.96;179348;1267;45991;-84
2023/07/23 11:45:07;;;;;;;6.30;2.20;;;;;;;31.62;41.84;99620.28;179593;1265;45950;-83
2023/07/23 11:49:14;;;;;;;24.80;5.60;;;;;;;31.68;41.02;99616.47;179552;1267;44987;-83
2023/07/23 11:53:33;;;;;;;20.50;3.80;;;;;;;31.81;40.52;99610.19;179502;1267;59223;-84
2023/07/23 11:57:38;;;;;;;9.90;2.70;;;;;;;31.87;39.61;99602.58;179658;1265;43928;-83
2023/07/23 12:01:43;;;;;;;2.10;0.90;;;;;;;31.89;40.92;99599.11;179972;1264;44512;-84
2023/07/23 12:05:47;;;;;;;82.40;15.20;;;;;;;31.96;39.52;99592.29;179586;1265;46036;-83
2023/07/23 12:09:51;;;;;;;;;;;;;;;32.01;39.79;99592.52;179789;1265;44116;-84
2023/07/23 12:13:57;;;;;;;5.00;2.20;;;;;;;32.12;39.66;99585.67;179778;1265;58523;-84
2023/07/23 12:18:03;;;;;;;17.60;3.90;;;;;;;32.11;38.07;99581.55;179618;1264;46424;-83
2023/07/23 12:22:07;;;;;;;;;;;;;;;32.09;38.68;99576.13;179614;1266;44042;-84
2023/07/23 12:26:11;;;;;;;3.80;2.60;;;;;;;32.16;37.83;99563.58;179726;1267;45945;-83
2023/07/23 12:30:17;;;;;;;4.40;2.50;;;;;;;32.15;37.22;99569.59;179489;1270;45985;-83
2023/07/23 12:34:21;;;;;;;4.10;2.50;;;;;;;32.10;37.53;99560.56;179738;1265;58970;-84
2023/07/23 12:38:28;;;;;;;8.70;2.60;;;;;;;31.82;38.14;99571.96;179301;1265;44539;-83
2023/07/23 12:42:33;;;;;;;;;;;;;;;31.56;38.65;99573.05;179664;1265;45945;-84
2023/07/23 12:46:41;;;;;;;2.90;1.90;;;;;;;31.54;39.75;99570.64;179638;1267;43903;-83
2023/07/23 12:50:45;;;;;;;5.80;3.00;;;;;;;31.50;40.16;99562.98;178199;1268;45503;-87
2023/07/23 12:54:49;;;;;;;2.30;1.80;;;;;;;31.45;39.72;99555.97;177838;1269;61060;-88
2023/07/23 12:58:53;;;;;;;4.50;2.90;;;;;;;31.24;39.64;99553.86;177828;1266;46094;-87
2023/07/23 13:02:56;;;;;;;4.70;1.80;;;;;;;31.17;40.37;99556.35;178231;1267;46114;-87
2023/07/23 13:07:00;;;;;;;2.90;2.20;;;;;;;31.49;42.05;99556.92;177431;1265;45997;-87
2023/07/23 13:11:03;;;;;;;10.30;2.60;;;;;;;31.65;40.40;99543.47;177639;1265;46062;-87
2023/07/23 13:15:07;;;;;;;16.30;3.00;;;;;;;31.56;40.20;99543.98;178509;1266;59407;-87
2023/07/23 13:19:12;;;;;;;12.40;3.40;;;;;;;31.44;40.67;99545.31;177306;1267;46037;-87
2023/07/23 13:23:15;;;;;;;4.40;2.50;;;;;;;31.29;41.21;99541.44;177378;1265;165510;-88
2023/07/23 13:27:19;;;;;;;2.60;1.90;;;;;;;31.26;41.55;99536.77;177346;1267;45986;-87
2023/07/23 13:31:22;;;;;;;11.70;3.60;;;;;;;31.39;42.14;99536.00;177764;1269;45957;-87
2023/07/23 13:35:26;;;;;;;14.50;4.20;;;;;;;31.66;42.36;99527.70;177575;1267;58254;-87
2023/07/23 13:39:29;;;;;;;8.10;2.90;;;;;;;31.87;42.37;99519.87;177705;1265;46015;-87
2023/07/23 13:43:33;;;;;;;2.90;2.30;;;;;;;32.04;41.67;99517.91;177731;1269;46150;-87
2023/07/23 13:47:36;;;;;;;4.40;1.90;;;;;;;32.02;41.65;99508.92;178516;1267;46078;-87
2023/07/23 13:51:40;;;;;;;3.60;2.10;;;;;;;32.04;42.52;99503.67;177929;1266;45912;-88
2023/07/23 13:55:43;;;;;;;14.10;4.30;;;;;;;32.11;42.77;99498.95;177936;1266;59818;-87
2023/07/23 13:59:47;;;;;;;4.10;1.80;;;;;;;32.26;41.99;99493.95;177167;1265;46075;-86
2023/07/23 14:03:50;;;;;;;6.50;2.20;;;;;;;32.32;41.61;99482.09;177579;1266;46104;-87
2023/07/23 14:07:53;;;;;;;3.90;2.50;;;;;;;32.37;41.38;99483.80;177664;1267;46023;-87
2023/07/23 14:11:57;;;;;;;1.80;1.60;;;;;;;32.39;40.27;99474.59;178212;1267;46059;-87
2023/07/23 14:16:00;;;;;;;3.80;2.30;;;;;;;32.43;40.49;99471.45;177583;1270;59837;-87
2023/07/23 14:20:07;;;;;;;2.30;1.40;;;;;;;32.50;40.45;99469.79;178684;1266;44097;-83
2023/07/23 14:24:12;;;;;;;4.80;1.90;;;;;;;32.55;40.25;99467.30;179644;1267;44165;-83
2023/07/23 14:28:16;;;;;;;6.80;2.50;;;;;;;32.30;39.90;99467.73;179648;1266;44784;-83
2023/07/23 14:32:20;;;;;;;4.40;2.30;;;;;;;32.15;40.25;99464.63;179691;1267;43838;-83
2023/07/23 14:36:24;;;;;;;2.50;2.10;;;;;;;32.08;40.85;99462.10;179626;1267;57953;-82
2023/07/23 14:40:28;;;;;;;3.90;2.60;;;;;;;31.79;40.62;99454.92;179757;1267;44846;-83
2023/07/23 14:44:31;;;;;;;4.60;1.80;;;;;;;31.55;40.96;99453.07;179629;1267;46024;-83
2023/07/23 14:48:35;;;;;;;21.40;5.30;;;;;;;31.37;40.56;99448.48;179466;1267;43849;-83
2023/07/23 14:52:39;;;;;;;2.50;1.70;;;;;;;31.34;41.76;99447.35;179583;1267;44616;-83
2023/07/23 14:56:54;;;;;;;4.50;2.60;;;;;;;31.31;42.08;99443.41;180109;1264;87243;-68
2023/07/23 15:00:57;;;;;;;6.80;2.50;;;;;;;31.19;41.87;99439.08;179250;1265;45999;-68
2023/07/23 15:05:00;;;;;;;11.10;1.60;;;;;;;31.08;42.32;99433.86;179549;1265;45129;-69
2023/07/23 15:09:04;;;;;;;3.10;2.80;;;;;;;31.03;42.79;99429.11;179547;1265;43768;-69
2023/07/23 15:13:12;;;;;;;3.10;2.30;;;;;;;30.90;42.13;99417.98;179506;1264;45970;-68
2023/07/23 15:17:18;;;;;;;16.40;4.50;;;;;;;30.77;41.75;99418.64;179675;1265;58048;-68
2023/07/23 15:21:22;;;;;;;11.60;3.80;;;;;;;30.63;41.14;99417.06;179568;1265;45906;-69
2023/07/23 15:25:32;;;;;;;4.10;1.60;;;;;;;30.50;41.26;99417.14;179321;1268;45993;-69
2023/07/23 15:29:42;;;;;;;10.90;2.50;;;;;;;30.41;41.26;99414.00;179202;1267;45207;-67
2023/07/23 15:33:53;;;;;;;17.70;4.70;;;;;;;30.38;41.48;99410.27;179506;1265;46069;-70
2023/07/23 15:37:57;;;;;;;4.50;1.90;;;;;;;30.45;42.21;99411.84;179540;1265;58787;-69
2023/07/23 15:42:02;;;;;;;2.60;1.50;;;;;;;30.68;42.67;99402.06;179808;1265;43788;-66
2023/07/23 15:46:07;;;;;;;3.30;1.60;;;;;;;30.96;42.30;99398.89;179993;1265;43724;-66
2023/07/23 15:50:11;;;;;;;2.20;1.10;;;;;;;31.11;41.56;99391.05;179847;1265;46060;-68
2023/07/23 15:54:15;;;;;;;4.00;1.70;;;;;;;31.12;41.55;99392.20;179463;1265;43802;-67
2023/07/23 15:58:18;;;;;;;5.90;2.60;;;;;;;31.08;40.53;99390.14;179711;1265;57966;-67
2023/07/23 16:02:21;;;;;;;2.50;1.80;;;;;;;30.94;39.33;99387.05;179485;1264;43618;-68
2023/07/23 16:06:26;;;;;;;3.50;2.70;;;;;;;30.73;38.37;99393.70;179524;1265;45171;-66
2023/07/23 16:10:30;;;;;;;2.70;1.70;;;;;;;30.76;39.69;99392.09;179453;1265;45853;-68
2023/07/23 16:14:34;;;;;;;7.30;1.80;;;;;;;30.81;40.25;99387.66;179349;1265;43790;-66
2023/07/23 16:18:40;;;;;;;4.50;2.10;;;;;;;30.86;38.89;99383.70;179596;1265;58772;-68
2023/07/23 16:22:43;;;;;;;2.70;2.00;;;;;;;30.91;38.85;99383.00;179378;1266;46068;-69
2023/07/23 16:26:48;;;;;;;3.00;2.10;;;;;;;30.95;38.88;99380.66;179346;1268;43815;-70
2023/07/23 16:30:51;;;;;;;2.10;1.70;;;;;;;30.94;38.79;99376.67;179403;1265;45770;-68
2023/07/23 16:34:54;;;;;;;3.80;2.00;;;;;;;30.88;38.53;99377.09;179435;1265;44839;-66
2023/07/23 16:38:58;;;;;;;6.00;2.00;;;;;;;30.76;38.37;99378.52;179553;1265;58529;-68
2023/07/23 16:43:14;;;;;;;;;;;;;;;30.71;39.12;99376.70;180337;1258;45989;-67
2023/07/23 16:52:26;;;;;;;4.80;1.70;;;;;;;30.31;39.01;99375.13;181131;1265;43110;-67
2023/07/23 16:56:29;;;;;;;2.00;1.30;;;;;;;30.21;39.11;99382.25;180964;1265;43981;-67
2023/07/23 17:00:58;;;;;;;27.00;5.10;;;;;;;30.18;39.58;99380.89;181070;1265;58387;-69
2023/07/23 17:09:55;;;;;;;3.10;1.60;;;;;;;30.00;39.81;99382.72;143833;1276;44713;-67
2023/07/23 17:14:02;;;;;;;6.00;2.40;;;;;;;29.90;39.83;99383.83;180514;1263;88394;-67
2023/07/23 17:18:06;;;;;;;3.20;2.20;;;;;;;29.75;40.00;99381.61;181019;1265;43667;-68
2023/07/23 17:22:10;;;;;;;3.80;1.70;;;;;;;29.64;40.16;99383.48;181178;1264;59334;-67
2023/07/23 17:26:14;;;;;;;2.00;1.10;;;;;;;29.51;40.37;99381.95;181043;1265;43066;-67
2023/07/23 17:30:52;;;;;;;6.10;2.40;;;;;;;29.35;40.68;99383.58;181153;1264;43093;-67
2023/07/23 17:34:55;;;;;;;2.90;2.00;;;;;;;29.19;41.11;99382.56;181209;1264;43610;-67
2023/07/23 17:38:57;;;;;;;7.80;2.60;;;;;;;29.02;41.50;99388.83;181176;1265;43781;-68
2023/07/23 17:43:00;;;;;;;4.50;1.80;;;;;;;28.88;41.83;99391.50;181007;1265;57902;-67
2023/07/23 17:47:03;;;;;;;2.80;2.00;;;;;;;28.71;42.29;99402.52;180989;1267;43813;-68
2023/07/23 17:51:06;;;;;;;3.60;2.30;;;;;;;28.54;42.82;99409.63;180973;1267;43026;-67
2023/07/23 17:55:09;;;;;;;3.70;2.30;;;;;;;28.34;43.37;99417.52;180994;1266;43845;-68
2023/07/23 17:59:13;;;;;;;2.60;1.50;;;;;;;28.16;43.83;99426.73;181034;1267;42996;-68
2023/07/23 18:03:18;;;;;;;5.60;2.00;;;;;;;27.99;44.72;99437.38;181056;1266;58237;-67
2023/07/23 18:07:21;;;;;;;4.80;2.10;;;;;;;27.81;45.35;99448.56;181020;1266;43999;-68
2023/07/23 18:11:51;;;;;;;7.90;2.70;;;;;;;27.63;45.30;99449.30;181139;1266;43731;-68
2023/07/23 18:15:54;;;;;;;5.10;2.10;;;;;;;27.50;45.33;99443.16;181086;1265;44046;-67
2023/07/23 18:19:57;;;;;;;3.00;2.30;;;;;;;27.51;45.53;99449.46;181060;1266;43755;-67
2023/07/23 18:24:00;;;;;;;5.00;2.60;;;;;;;27.52;45.73;99456.41;181025;1265;59495;-67
2023/07/23 18:28:55;;;;;;;6.00;2.00;;;;;;;27.52;45.84;99460.87;180962;1266;43469;-67
2023/07/23 18:32:58;;;;;;;6.30;2.70;;;;;;;27.43;45.82;99457.70;181124;1265;43070;-68
2023/07/23 18:37:01;;;;;;;4.50;2.60;;;;;;;27.37;45.86;99463.39;181164;1268;43047;-67
2023/07/23 18:41:04;;;;;;;3.50;2.10;;;;;;;27.33;45.80;99466.55;180386;1273;42979;-67
2023/07/23 18:45:08;;;;;;;5.30;2.70;;;;;;;27.22;45.84;99458.70;180163;1276;58007;-66
2023/07/23 18:49:11;;;;;;;4.30;2.50;;;;;;;27.12;46.01;99451.98;180564;1273;43157;-67
2023/07/23 18:53:14;;;;;;;4.00;3.20;;;;;;;27.02;46.37;99457.34;180257;1273;43877;-67
2023/07/23 18:57:17;;;;;;;6.10;2.00;;;;;;;26.98;46.61;99468.16;179993;1274;43867;-68
2023/07/23 19:01:20;;;;;;;3.70;2.40;;;;;;;26.84;46.88;99468.58;180064;1273;43379;-67
2023/07/23 19:05:23;;;;;;;4.00;3.20;;;;;;;26.69;46.71;99468.80;180112;1274;56942;-66
2023/07/23 19:09:27;;;;;;;2.80;2.00;;;;;;;26.58;47.02;99475.32;180301;1274;43723;-67
2023/07/23 19:13:30;;;;;;;6.00;1.80;;;;;;;26.52;47.27;99490.33;180509;1273;43682;-66
2023/07/23 19:17:33;;;;;;;6.50;3.10;;;;;;;26.35;47.40;99505.54;179819;1273;43849;-71
2023/07/23 19:21:36;;;;;;;2.70;2.00;;;;;;;26.21;47.79;99519.05;180454;1273;43337;-74
2023/07/23 19:25:39;;;;;;;42.40;8.80;;;;;;;26.01;48.12;99522.24;180100;1273;57927;-71